.
WxDataArchive / Data Records for 2005-12-11
2005-12-10 December 2005 2005-12-12

Data Records for Sunday, 11 December 2005

Time	Temp	Chill	HIndex	Humid	Dewpt	 Wind 	HiWind	WindDir	Rain 	Barom 
-----	----	-----	------	-----	-----	------	------	-------	-----	----- 
00:00	27.5	21.8	27.5	82	22.7	5	12	248	0.00	29.571 
00:05	27.6	23.0	27.6	82	22.8	4	15	270	0.00	29.571 
00:10	27.6	21.9	27.6	82	22.8	5	11	248	0.00	29.571 
00:15	27.8	22.1	27.8	82	23.0	5	15	248	0.00	29.567 
00:20	27.9	23.3	27.9	82	23.1	4	12	270	0.00	29.567 
00:25	27.9	22.3	27.9	83	23.4	5	11	270	0.00	29.567 
00:30	28.1	21.6	28.1	83	23.6	6	13	270	0.00	29.564 
00:35	28.2	23.7	28.2	83	23.7	4	13	248	0.00	29.564 
00:40	28.2	22.6	28.2	83	23.7	5	11	270	0.00	29.564 
00:45	28.4	21.9	28.4	84	24.2	6	13	248	0.00	29.560 
00:50	28.4	21.9	28.4	84	24.2	6	14	248	0.00	29.560 
00:55	28.5	24.0	28.5	84	24.3	4	10	248	0.00	29.560 
01:00	28.5	23.0	28.5	84	24.3	5	12	248	0.00	29.552 
01:05	28.5	23.0	28.5	84	24.3	5	11	270	0.00	29.552 
01:10	28.7	23.2	28.7	85	24.8	5	13	270	0.00	29.552 
01:15	28.7	23.2	28.7	85	24.8	5	12	248	0.00	29.551 
01:20	28.8	28.8	28.8	85	24.9	3	9	270	0.00	29.551 
01:25	28.8	24.4	28.8	85	24.9	4	10	270	0.00	29.551 
01:30	29.0	24.6	29.0	85	25.1	4	10	270	0.00	29.549 
01:35	29.0	23.6	29.0	85	25.1	5	11	248	0.00	29.549 
01:40	29.1	23.7	29.1	85	25.2	5	10	248	0.00	29.549 
01:45	29.3	23.0	29.3	85	25.4	6	15	248	0.00	29.550 
01:50	29.3	25.0	29.3	85	25.4	4	10	270	0.00	29.550 
01:55	29.3	25.0	29.3	85	25.4	4	10	270	0.00	29.550 
02:00	29.4	29.4	29.4	85	25.5	3	10	248	0.00	29.549 
02:05	29.4	24.0	29.4	85	25.5	5	11	248	0.00	29.549 
02:10	29.5	25.2	29.5	85	25.6	4	13	270	0.00	29.549 
02:15	29.5	29.5	29.5	85	25.6	3	9	270	0.00	29.550 
02:20	29.7	29.7	29.7	85	25.8	3	10	270	0.00	29.550 
02:25	29.7	29.7	29.7	85	25.8	3	11	248	0.00	29.550 
02:30	29.8	29.8	29.8	85	25.9	3	10	270	0.00	29.555 
02:35	30.0	30.0	30.0	85	26.0	3	10	248	0.00	29.555 
02:40	30.0	25.8	30.0	85	26.0	4	10	270	0.00	29.555 
02:45	30.1	30.1	30.1	85	26.1	3	6	270	0.00	29.562 
02:50	30.1	30.1	30.1	84	25.9	3	9	270	0.00	29.562 
02:55	30.1	30.1	30.1	84	25.9	3	7	270	0.00	29.562 
03:00	30.3	30.3	30.3	84	26.1	3	8	270	0.00	29.565 
03:05	30.3	30.3	30.3	84	26.1	2	6	248	0.00	29.565 
03:10	30.3	30.3	30.3	84	26.1	3	11	270	0.00	29.565 
03:15	30.3	30.3	30.3	84	26.1	2	5	270	0.00	29.569 
03:20	30.3	30.3	30.3	84	26.1	3	6	270	0.00	29.569 
03:25	30.4	30.4	30.4	84	26.2	3	7	270	0.00	29.569 
03:30	30.4	26.2	30.4	84	26.2	4	10	270	0.00	29.569 
03:35	30.4	26.2	30.4	84	26.2	4	12	270	0.00	29.569 
03:40	30.4	30.4	30.4	85	26.4	3	9	270	0.00	29.569 
03:45	30.4	30.4	30.4	85	26.4	3	11	248	0.00	29.565 
03:50	30.3	30.3	30.3	85	26.3	3	7	248	0.00	29.565 
03:55	30.3	30.3	30.3	86	26.6	3	6	270	0.00	29.565 
04:00	30.4	30.4	30.4	86	26.7	3	7	248	0.00	29.565 
04:05	30.4	30.4	30.4	86	26.7	3	6	248	0.00	29.565 
04:10	30.4	30.4	30.4	86	26.7	3	9	248	0.00	29.565 
04:15	30.4	30.4	30.4	86	26.7	3	6	248	0.00	29.569 
04:20	30.6	30.6	30.6	86	26.9	3	11	248	0.00	29.569 
04:25	30.6	26.5	30.6	86	26.9	4	11	270	0.00	29.569 
04:30	30.7	30.7	30.7	86	27.0	3	9	270	0.00	29.565 
04:35	30.7	26.6	30.7	86	27.0	4	9	248	0.00	29.565 
04:40	30.7	30.7	30.7	86	27.0	3	10	248	0.00	29.565 
04:45	30.9	26.8	30.9	85	26.9	4	9	248	0.00	29.567 
04:50	30.9	30.9	30.9	85	26.9	3	7	270	0.00	29.567 
04:55	30.7	26.6	30.7	85	26.7	4	11	248	0.00	29.567 
05:00	30.9	26.8	30.9	85	26.9	4	13	270	0.00	29.569 
05:05	30.9	30.9	30.9	85	26.9	3	9	248	0.00	29.569 
05:10	30.7	30.7	30.7	85	26.7	3	6	270	0.00	29.569 
05:15	30.7	30.7	30.7	85	26.7	3	7	248	0.00	29.568 
05:20	30.7	30.7	30.7	84	26.4	3	7	270	0.00	29.568 
05:25	30.7	26.6	30.7	84	26.4	4	10	248	0.00	29.568 
05:30	30.7	30.7	30.7	84	26.4	3	6	248	0.00	29.572 
05:35	30.7	30.7	30.7	85	26.7	3	7	248	0.00	29.572 
05:40	30.6	30.6	30.6	85	26.6	3	7	248	0.00	29.572 
05:45	30.6	30.6	30.6	85	26.6	3	7	248	0.00	29.573 
05:50	30.6	30.6	30.6	85	26.6	3	6	248	0.00	29.573 
05:55	30.6	30.6	30.6	86	26.9	3	6	248	0.00	29.573 
06:00	30.6	30.6	30.6	86	26.9	2	5	248	0.00	29.580 
06:05	30.6	30.6	30.6	87	27.2	2	6	248	0.00	29.580 
06:10	30.6	30.6	30.6	87	27.2	2	6	248	0.00	29.580 
06:15	30.7	30.7	30.7	87	27.3	3	5	248	0.00	29.579 
06:20	30.7	30.7	30.7	87	27.3	3	6	248	0.00	29.579 
06:25	30.7	30.7	30.7	87	27.3	3	7	248	0.00	29.579 
06:30	30.7	30.7	30.7	87	27.3	2	4	248	0.00	29.580 
06:35	30.7	30.7	30.7	87	27.3	3	6	248	0.00	29.580 
06:40	30.9	30.9	30.9	88	27.8	2	6	248	0.00	29.580 
06:45	30.9	30.9	30.9	88	27.8	1	3	248	0.00	29.581 
06:50	30.9	30.9	30.9	88	27.8	1	4	248	0.00	29.581 
06:55	31.0	31.0	31.0	88	27.9	3	6	248	0.00	29.581 
07:00	31.2	31.2	31.2	88	28.1	2	4	248	0.00	29.582 
07:05	31.2	31.2	31.2	88	28.1	2	4	248	0.00	29.582 
07:10	31.3	31.3	31.3	88	28.2	2	6	248	0.00	29.582 
07:15	31.3	31.3	31.3	88	28.2	2	5	248	0.00	29.581 
07:20	31.5	31.5	31.5	88	28.4	3	7	248	0.00	29.581 
07:25	31.6	31.6	31.6	88	28.5	2	5	248	0.00	29.581 
07:30	31.6	31.6	31.6	88	28.5	1	3	270	0.00	29.584 
07:35	31.5	31.5	31.5	88	28.4	1	6	270	0.00	29.584 
07:40	31.6	31.6	31.6	88	28.5	2	4	248	0.00	29.584 
07:45	31.6	31.6	31.6	87	28.2	2	4	248	0.00	29.582 
07:50	31.8	31.8	31.8	86	28.1	3	12	270	0.00	29.582 
07:55	31.9	31.9	31.9	86	28.2	3	9	270	0.00	29.582 
08:00	31.9	31.9	31.9	86	28.2	3	7	248	0.00	29.585 
08:05	31.9	31.9	31.9	87	28.5	3	7	248	0.00	29.585 
08:10	31.8	31.8	31.8	87	28.4	3	7	248	0.00	29.585 
08:15	31.8	31.8	31.8	87	28.4	3	6	248	0.00	29.589 
08:20	31.6	31.6	31.6	87	28.2	2	3	270	0.00	29.589 
08:25	31.6	31.6	31.6	87	28.2	2	5	248	0.00	29.589 
08:30	31.6	31.6	31.6	87	28.2	2	3	248	0.00	29.595 
08:35	31.6	31.6	31.6	88	28.5	2	4	248	0.00	29.595 
08:40	31.5	31.5	31.5	88	28.4	2	4	270	0.00	29.595 
08:45	31.5	31.5	31.5	88	28.4	2	6	248	0.00	29.596 
08:50	31.5	31.5	31.5	88	28.4	2	4	248	0.00	29.596 
08:55	31.5	31.5	31.5	88	28.4	2	5	270	0.00	29.596 
09:00	31.5	31.5	31.5	89	28.6	2	6	248	0.00	29.604 
09:05	31.3	31.3	31.3	90	28.7	1	5	270	0.00	29.604 
09:10	31.3	31.3	31.3	91	29.0	1	3	248	0.00	29.604 
09:15	31.2	31.2	31.2	91	28.9	0	2	248	0.00	29.609 
09:20	31.2	31.2	31.2	91	28.9	1	4	248	0.00	29.609 
09:25	31.2	31.2	31.2	91	28.9	1	3	248	0.00	29.609 
09:30	31.3	31.3	31.3	91	29.0	1	2	248	0.00	29.610 
09:35	31.3	31.3	31.3	91	29.0	1	2	248	0.00	29.610 
09:40	31.3	31.3	31.3	90	28.7	1	3	248	0.00	29.610 
09:45	31.5	31.5	31.5	89	28.6	1	4	270	0.00	29.613 
09:50	31.6	31.6	31.6	88	28.5	2	5	270	0.00	29.613 
09:55	31.8	31.8	31.8	87	28.4	2	4	270	0.00	29.613 
10:00	32.1	32.1	32.1	86	28.4	2	4	270	0.00	29.623 
10:05	32.4	32.4	32.4	85	28.4	2	4	248	0.00	29.623 
10:10	32.5	32.5	32.5	83	27.9	2	5	270	0.00	29.623 
10:15	32.5	32.5	32.5	81	27.3	2	6	270	0.00	29.623 
10:20	32.7	32.7	32.7	81	27.5	3	7	270	0.00	29.623 
10:25	32.7	32.7	32.7	80	27.2	2	5	270	0.00	29.623 
10:30	32.5	32.5	32.5	79	26.7	3	5	270	0.00	29.630 
10:35	32.7	32.7	32.7	79	26.9	3	8	270	0.00	29.630 
10:40	32.8	32.8	32.8	79	27.0	3	5	270	0.00	29.630 
10:45	32.8	29.0	32.8	78	26.7	4	9	270	0.00	29.637 
10:50	32.9	32.9	32.9	78	26.8	3	7	270	0.00	29.637 
10:55	32.9	32.9	32.9	77	26.5	3	5	270	0.00	29.637 
11:00	32.9	32.9	32.9	76	26.2	3	6	270	0.00	29.640 
11:05	32.9	32.9	32.9	76	26.2	3	6	270	0.00	29.640 
11:10	32.9	32.9	32.9	76	26.2	2	6	270	0.00	29.640 
11:15	32.9	29.1	32.9	75	25.9	4	11	270	0.00	29.639 
11:20	32.8	29.0	32.8	73	25.1	4	10	270	0.00	29.639 
11:25	32.9	29.1	32.9	73	25.2	4	10	270	0.00	29.639 
11:30	32.9	29.1	32.9	73	25.2	4	13	270	0.00	29.638 
11:35	33.1	33.1	33.1	73	25.4	3	10	270	0.00	29.638 
11:40	32.9	32.9	32.9	73	25.2	3	5	270	0.00	29.638 
11:45	32.8	32.8	32.8	72	24.8	3	9	270	0.00	29.638 
11:50	32.7	27.9	32.7	73	25.0	5	11	270	0.00	29.638 
11:55	32.4	27.5	32.4	73	24.7	5	13	270	0.00	29.638 
12:00	32.2	28.3	32.2	73	24.5	4	12	270	0.00	29.640 
12:05	32.1	32.1	32.1	74	24.8	3	5	270	0.00	29.640 
12:10	31.9	31.9	31.9	74	24.6	3	7	270	0.00	29.640 
12:15	31.9	28.0	31.9	73	24.2	4	9	270	0.00	29.639 
12:20	31.8	27.8	31.8	74	24.5	4	12	270	0.00	29.639 
12:25	31.5	27.5	31.5	74	24.2	4	9	270	0.00	29.639 
12:30	31.5	31.5	31.5	75	24.5	2	5	270	0.00	29.640 
12:35	31.3	26.3	31.3	73	23.7	5	10	270	0.00	29.640 
12:40	31.2	26.1	31.2	74	23.9	5	11	270	0.00	29.640 
12:45	31.0	26.9	31.0	73	23.4	4	9	270	0.00	29.640 
12:50	31.0	26.9	31.0	73	23.4	4	8	270	0.00	29.640 
12:55	31.0	26.9	31.0	73	23.4	4	12	270	0.00	29.640 
13:00	30.9	26.8	30.9	73	23.3	4	9	270	0.00	29.643 
13:05	30.7	26.6	30.7	73	23.1	4	9	270	0.00	29.643 
13:10	30.6	26.5	30.6	73	23.0	4	10	270	0.00	29.643 
13:15	30.6	30.6	30.6	73	23.0	3	9	270	0.00	29.648 
13:20	30.6	30.6	30.6	73	23.0	3	5	270	0.00	29.648 
13:25	30.7	25.5	30.7	72	22.8	5	9	270	0.00	29.648 
13:30	30.9	30.9	30.9	73	23.3	3	6	270	0.00	29.651 
13:35	30.7	26.6	30.7	72	22.8	4	11	270	0.00	29.651 
13:40	30.7	26.6	30.7	73	23.1	4	11	270	0.00	29.651 
13:45	30.6	26.5	30.6	74	23.3	4	9	270	0.00	29.653 
13:50	30.6	26.5	30.6	74	23.3	4	11	270	0.00	29.653 
13:55	30.6	30.6	30.6	74	23.3	3	6	270	0.00	29.653 
14:00	30.6	30.6	30.6	74	23.3	3	6	270	0.00	29.655 
14:05	30.7	30.7	30.7	73	23.1	3	5	270	0.00	29.655 
14:10	30.4	26.2	30.4	72	22.5	4	11	270	0.00	29.655 
14:15	30.3	26.1	30.3	72	22.4	4	10	270	0.00	29.656 
14:20	30.4	30.4	30.4	71	22.1	3	7	270	0.00	29.656 
14:25	30.4	30.4	30.4	72	22.5	2	5	270	0.00	29.656 
14:30	30.6	30.6	30.6	72	22.7	2	7	270	0.00	29.661 
14:35	30.4	30.4	30.4	73	22.8	3	7	270	0.00	29.661 
14:40	30.6	30.6	30.6	74	23.3	2	5	248	0.00	29.661 
14:45	30.3	26.1	30.3	73	22.7	4	7	270	0.00	29.668 
14:50	30.1	30.1	30.1	73	22.5	3	7	270	0.00	29.668 
14:55	29.8	25.5	29.8	74	22.5	4	11	270	0.00	29.668 
15:00	29.5	25.2	29.5	73	21.9	4	9	270	0.00	29.671 
15:05	29.4	25.1	29.4	73	21.8	4	10	270	0.00	29.671 
15:10	29.3	25.0	29.3	74	22.1	4	7	270	0.00	29.671 
15:15	29.1	29.1	29.1	74	21.9	3	7	270	0.00	29.684 
15:20	29.1	29.1	29.1	74	21.9	3	6	270	0.00	29.684 
15:25	29.0	24.6	29.0	74	21.8	4	10	270	0.00	29.684 
15:30	28.8	24.4	28.8	74	21.6	4	10	270	0.00	29.688 
15:35	28.8	28.8	28.8	75	21.9	3	7	270	0.00	29.688 
15:40	28.7	28.7	28.7	75	21.8	3	7	270	0.00	29.688 
15:45	28.5	24.0	28.5	76	21.9	4	8	270	0.00	29.694 
15:50	28.5	28.5	28.5	76	21.9	2	4	270	0.00	29.694 
15:55	28.5	28.5	28.5	75	21.6	3	5	270	0.00	29.694 
16:00	28.5	28.5	28.5	75	21.6	3	6	270	0.00	29.697 
16:05	28.5	28.5	28.5	75	21.6	2	5	270	0.00	29.697 
16:10	28.5	28.5	28.5	75	21.6	3	6	270	0.00	29.697 
16:15	28.4	28.4	28.4	75	21.5	3	6	270	0.00	29.701 
16:20	28.2	28.2	28.2	75	21.3	3	7	270	0.00	29.701 
16:25	28.2	28.2	28.2	75	21.3	3	6	270	0.00	29.701 
16:30	28.1	28.1	28.1	75	21.2	2	4	270	0.00	29.706 
16:35	28.1	28.1	28.1	75	21.2	3	6	270	0.00	29.706 
16:40	28.1	28.1	28.1	76	21.5	2	5	270	0.00	29.706 
16:45	27.9	27.9	27.9	76	21.3	2	4	270	0.00	29.714 
16:50	27.8	27.8	27.8	77	21.5	2	4	248	0.00	29.714 
16:55	27.6	27.6	27.6	76	21.0	2	4	270	0.00	29.714 
17:00	27.6	27.6	27.6	77	21.4	2	6	270	0.00	29.718 
17:05	27.5	27.5	27.5	76	20.9	3	5	270	0.00	29.718 
17:10	27.5	27.5	27.5	77	21.3	2	5	270	0.00	29.718 
17:15	27.3	27.3	27.3	77	21.1	2	6	270	0.00	29.720 
17:20	27.3	27.3	27.3	77	21.1	2	4	270	0.00	29.720 
17:25	27.2	27.2	27.2	77	21.0	3	7	270	0.00	29.720 
17:30	27.2	27.2	27.2	77	21.0	2	5	270	0.00	29.721 
17:35	27.0	27.0	27.0	77	20.8	2	5	315	0.00	29.721 
17:40	26.9	26.9	26.9	77	20.7	2	5	270	0.00	29.721 
17:45	26.9	26.9	26.9	78	21.0	2	4	270	0.00	29.730 
17:50	26.9	26.9	26.9	78	21.0	2	4	270	0.00	29.730 
17:55	26.7	26.7	26.7	78	20.8	2	4	270	0.00	29.730 
18:00	26.7	26.7	26.7	78	20.8	1	3	248	0.00	29.735 
18:05	26.7	26.7	26.7	78	20.8	2	3	248	0.00	29.735 
18:10	26.7	26.7	26.7	78	20.8	2	7	270	0.00	29.735 
18:15	26.7	26.7	26.7	77	20.5	2	5	270	0.00	29.741 
18:20	26.7	26.7	26.7	78	20.8	2	4	270	0.00	29.741 
18:25	26.6	26.6	26.6	77	20.4	2	5	270	0.00	29.741 
18:30	26.6	26.6	26.6	77	20.4	2	5	248	0.00	29.749 
18:35	26.6	26.6	26.6	77	20.4	2	4	270	0.00	29.749 
18:40	26.6	26.6	26.6	77	20.4	2	4	248	0.00	29.749 
18:45	26.6	26.6	26.6	77	20.4	2	4	270	0.00	29.752 
18:50	26.6	26.6	26.6	77	20.4	2	9	248	0.00	29.752 
18:55	26.4	26.4	26.4	77	20.2	2	4	248	0.00	29.752 
19:00	26.4	26.4	26.4	77	20.2	2	6	248	0.00	29.757 
19:05	26.4	26.4	26.4	77	20.2	2	5	248	0.00	29.757 
19:10	26.4	26.4	26.4	77	20.2	2	4	248	0.00	29.757 
19:15	26.4	26.4	26.4	76	19.9	2	4	270	0.00	29.763 
19:20	26.3	26.3	26.3	77	20.1	2	5	270	0.00	29.763 
19:25	26.3	26.3	26.3	77	20.1	1	3	248	0.00	29.763 
19:30	26.3	26.3	26.3	77	20.1	2	6	248	0.00	29.768 
19:35	26.3	26.3	26.3	77	20.1	2	4	270	0.00	29.768 
19:40	26.3	26.3	26.3	76	19.8	2	4	270	0.00	29.768 
19:45	26.3	26.3	26.3	77	20.1	1	3	248	0.00	29.772 
19:50	26.3	26.3	26.3	76	19.8	2	4	248	0.00	29.772 
19:55	26.3	26.3	26.3	77	20.1	2	4	270	0.00	29.772 
20:00	26.1	26.1	26.1	77	19.9	2	4	248	0.00	29.775 
20:05	26.1	26.1	26.1	77	19.9	1	4	248	0.00	29.775 
20:10	26.1	26.1	26.1	77	19.9	2	5	248	0.00	29.775 
20:15	26.0	26.0	26.0	77	19.8	1	4	248	0.00	29.780 
20:20	26.0	26.0	26.0	78	20.1	1	4	270	0.00	29.780 
20:25	26.0	26.0	26.0	78	20.1	2	4	248	0.00	29.780 
20:30	25.8	25.8	25.8	79	20.2	1	3	248	0.00	29.781 
20:35	25.8	25.8	25.8	80	20.5	1	3	248	0.00	29.781 
20:40	25.7	25.7	25.7	80	20.4	1	4	248	0.00	29.781 
20:45	25.6	25.6	25.6	81	20.6	1	2	248	0.00	29.782 
20:50	25.6	25.6	25.6	81	20.6	1	3	248	0.00	29.782 
20:55	25.4	25.4	25.4	82	20.7	1	3	248	0.00	29.782 
21:00	25.4	25.4	25.4	82	20.7	1	4	248	0.00	29.786 
21:05	25.4	25.4	25.4	82	20.7	1	3	248	0.00	29.786 
21:10	25.4	25.4	25.4	82	20.7	1	3	248	0.00	29.786 
21:15	25.3	25.3	25.3	82	20.6	1	3	248	0.00	29.791 
21:20	25.3	25.3	25.3	81	20.3	1	3	248	0.00	29.791 
21:25	25.3	25.3	25.3	81	20.3	1	2	248	0.00	29.791 
21:30	25.3	25.3	25.3	81	20.3	1	5	248	0.00	29.790 
21:35	25.3	25.3	25.3	81	20.3	1	2	248	0.00	29.790 
21:40	25.3	25.3	25.3	81	20.3	1	3	248	0.00	29.790 
21:45	25.3	25.3	25.3	81	20.3	2	5	248	0.00	29.798 
21:50	25.3	25.3	25.3	81	20.3	1	4	248	0.00	29.798 
21:55	25.1	25.1	25.1	81	20.1	1	2	248	0.00	29.798 
22:00	25.1	25.1	25.1	81	20.1	1	3	248	0.00	29.799 
22:05	25.1	25.1	25.1	81	20.1	1	3	248	0.00	29.799 
22:10	25.1	25.1	25.1	81	20.1	1	2	248	0.00	29.799 
22:15	25.0	25.0	25.0	81	20.0	1	4	248	0.00	29.798 
22:20	25.0	25.0	25.0	81	20.0	1	4	270	0.00	29.798 
22:25	25.0	25.0	25.0	81	20.0	1	4	248	0.00	29.798 
22:30	24.8	24.8	24.8	81	19.8	1	2	248	0.00	29.799 
22:35	24.8	24.8	24.8	81	19.8	1	2	248	0.00	29.799 
22:40	24.8	24.8	24.8	81	19.8	1	3	225	0.00	29.799 
22:45	24.8	24.8	24.8	81	19.8	1	2	225	0.00	29.798 
22:50	24.8	24.8	24.8	81	19.8	1	3	248	0.00	29.798 
22:55	24.8	24.8	24.8	81	19.8	1	2	248	0.00	29.798 
23:00	24.7	24.7	24.7	81	19.7	1	3	248	0.00	29.798 
23:05	24.7	24.7	24.7	81	19.7	1	4	225	0.00	29.798 
23:10	24.7	24.7	24.7	80	19.4	1	2	225	0.00	29.798 
23:15	24.7	24.7	24.7	80	19.4	1	3	225	0.00	29.799 
23:20	24.5	24.5	24.5	80	19.2	1	2	248	0.00	29.799 
23:25	24.5	24.5	24.5	80	19.2	1	2	248	0.00	29.799 
23:30	24.4	24.4	24.4	80	19.1	0	1	248	0.00	29.798 
23:35	24.4	24.4	24.4	81	19.4	0	3	248	0.00	29.798 
23:40	24.2	24.2	24.2	80	18.9	0	2	248	0.00	29.798 
23:45	24.2	24.2	24.2	80	18.9	0	2	248	0.00	29.799 
23:50	24.2	24.2	24.2	80	18.9	0	1	248	0.00	29.799 
23:55	24.1	24.1	24.1	80	18.8	0	2	248	0.00	29.799 

CoCoRaHS
IN-AL-39
A2 Web Hosting
Creative Commons License
GoDaddy
Look for:

loaded 2017-10-19 12:22:25 • last modified 2010-11-18 10:43:29
Privacy PolicyDisclaimer
• wx.awcolley.com is powered by PmWiki v.2002016 •
• all content (unless otherwise noted) © 2017 A W Colley